Avis, Pennsylvania
Current Conditions -  °F | °C
As of 12:54 AM on Thursday 18 Dec 2014 (Local Time) from KIPT Reporting Station
Overcast Overcast  
Wind Chill: -4°   Ceiling: 4900
Heat Index:   Visibility: 10mi
Dew Point: -6°   Wind: 15mph
Humidity: 59%   Direction: 270°W
Pressure: 29.99"   Gusts: 22mph
Location:  41.18°N, 77.31°W
Report Text: KIPT 180554Z AUTO 27013G19KT 10SM OVC049 01/M06 A2999 RMK AO2 SLP158 T00111061 10033 20011 53003
Loading
Personal Weather Stations






























Interactive Weather Map New forecast layout! Learn more

10-Day Weather Forecast

Advertisements
Track Severe Weather on mobile